createdAt,value
2019-02-27T00:05:09.006Z,57.40
2019-02-27T00:10:39.313Z,57.40
2019-02-27T00:16:11.029Z,57.40
2019-02-27T00:21:43.637Z,57.50
2019-02-27T00:27:14.632Z,57.70
2019-02-27T00:32:44.680Z,57.70
2019-02-27T00:38:14.383Z,57.70
2019-02-27T00:43:44.280Z,57.60
2019-02-27T00:49:14.154Z,57.70
2019-02-27T00:54:43.877Z,57.80
2019-02-27T01:00:18.922Z,57.80
2019-02-27T01:05:48.480Z,57.80
2019-02-27T01:11:18.922Z,57.90
2019-02-27T01:16:50.279Z,57.90
2019-02-27T01:22:19.965Z,57.80
2019-02-27T01:27:49.303Z,57.80
2019-02-27T01:33:18.742Z,57.90
2019-02-27T01:38:48.515Z,57.90
2019-02-27T01:44:18.333Z,57.90
2019-02-27T01:49:49.171Z,58.00
2019-02-27T01:55:21.678Z,58.00
2019-02-27T02:00:50.240Z,57.90
2019-02-27T02:06:20.726Z,58.00
2019-02-27T02:11:50.107Z,58.10
2019-02-27T02:18:11.863Z,58.20
2019-02-27T02:23:50.120Z,58.30
2019-02-27T02:29:53.166Z,58.50
2019-02-27T02:36:00.759Z,58.50
2019-02-27T02:41:48.107Z,58.60
2019-02-27T02:47:34.547Z,58.60
2019-02-27T02:53:14.932Z,58.70
2019-02-27T02:59:26.022Z,58.80
2019-02-27T03:05:37.690Z,59.00
2019-02-27T03:11:23.523Z,59.00
2019-02-27T03:17:29.091Z,59.10
2019-02-27T03:23:25.816Z,59.20
2019-02-27T03:29:17.421Z,59.30
2019-02-27T03:35:17.103Z,59.40
2019-02-27T03:41:22.447Z,59.50
2019-02-27T03:47:22.738Z,59.60
2019-02-27T03:53:22.306Z,59.80
2019-02-27T03:59:15.452Z,59.90
2019-02-27T04:05:12.488Z,59.90
2019-02-27T04:10:42.307Z,60.10
2019-02-27T04:16:12.262Z,60.20
2019-02-27T04:21:42.157Z,60.50
2019-02-27T04:27:20.209Z,60.60
2019-02-27T04:32:48.726Z,60.80
2019-02-27T04:38:16.425Z,60.90
2019-02-27T04:43:46.214Z,61.00
2019-02-27T04:49:15.936Z,61.20
2019-02-27T04:54:45.438Z,61.40
2019-02-27T05:00:15.076Z,61.50
2019-02-27T05:05:44.671Z,61.60
2019-02-27T05:11:14.844Z,61.60
2019-02-27T05:16:47.043Z,61.80
2019-02-27T05:22:15.855Z,61.90
2019-02-27T05:27:56.183Z,62.00
2019-02-27T05:33:25.615Z,62.30
2019-02-27T05:38:54.971Z,62.20
2019-02-27T05:44:24.567Z,62.40
2019-02-27T05:49:54.086Z,62.30
2019-02-27T05:55:24.342Z,62.30
2019-02-27T06:00:53.785Z,62.40
2019-02-27T06:06:24.201Z,62.30
2019-02-27T06:11:53.626Z,62.40
2019-02-27T06:17:23.040Z,62.60
2019-02-27T06:22:52.417Z,62.70
2019-02-27T06:28:21.928Z,62.70
2019-02-27T06:33:51.231Z,62.80
2019-02-27T06:39:20.539Z,62.90
2019-02-27T06:44:50.404Z,62.90
2019-02-27T06:50:25.270Z,62.90
2019-02-27T06:55:53.457Z,63.10
2019-02-27T07:01:22.829Z,63.10
2019-02-27T07:06:55.229Z,63.30
2019-02-27T07:12:23.185Z,63.30
2019-02-27T07:17:52.565Z,63.30
2019-02-27T07:23:23.662Z,63.30
2019-02-27T07:28:53.332Z,63.30
2019-02-27T07:34:22.730Z,63.20
2019-02-27T07:39:52.078Z,63.10
2019-02-27T07:45:24.483Z,62.80
2019-02-27T07:50:53.803Z,62.50
2019-02-27T07:56:23.240Z,62.40
2019-02-27T08:01:52.645Z,62.00
2019-02-27T08:07:22.026Z,61.80
2019-02-27T08:12:55.564Z,61.30
2019-02-27T08:18:29.814Z,60.90
2019-02-27T08:23:55.168Z,60.70
2019-02-27T08:29:24.742Z,60.30
2019-02-27T08:34:54.151Z,60.00
2019-02-27T08:40:25.124Z,59.50
2019-02-27T08:46:09.140Z,58.90
2019-02-27T08:51:39.755Z,57.40
2019-02-27T08:57:10.114Z,57.00
2019-02-27T09:02:39.871Z,55.90
2019-02-27T09:08:10.169Z,55.30
2019-02-27T09:13:40.555Z,54.70
2019-02-27T09:19:10.222Z,54.10
2019-02-27T09:24:39.722Z,53.60
2019-02-27T09:30:28.808Z,53.10
2019-02-27T09:35:55.478Z,52.40
2019-02-27T09:41:24.883Z,51.40
2019-02-27T09:46:54.311Z,51.10
2019-02-27T09:52:23.802Z,50.40
2019-02-27T09:57:53.241Z,50.10
2019-02-27T10:03:22.601Z,49.40
2019-02-27T10:08:51.998Z,48.70
2019-02-27T10:14:21.436Z,47.80
2019-02-27T10:19:50.870Z,47.20
2019-02-27T10:25:20.269Z,46.40
2019-02-27T10:30:50.700Z,44.80
2019-02-27T10:36:20.205Z,43.80
2019-02-27T10:41:50.530Z,43.20
2019-02-27T10:47:20.157Z,43.20
2019-02-27T10:52:50.204Z,42.20
2019-02-27T10:58:24.550Z,42.00
2019-02-27T11:03:54.625Z,41.80
2019-02-27T11:09:26.888Z,41.60
2019-02-27T11:14:56.297Z,42.00
2019-02-27T11:20:25.748Z,40.90
2019-02-27T11:25:56.941Z,40.70
2019-02-27T11:31:26.150Z,39.90
2019-02-27T11:36:55.544Z,39.10
2019-02-27T11:42:24.949Z,37.90
2019-02-27T11:47:54.405Z,37.70
2019-02-27T11:53:23.805Z,37.70
2019-02-27T11:58:53.217Z,37.30
2019-02-27T12:04:22.704Z,37.20
2019-02-27T12:10:17.867Z,36.50
2019-02-27T12:15:47.323Z,36.20
2019-02-27T12:21:16.756Z,36.10
2019-02-27T12:26:46.290Z,36.70
2019-02-27T12:32:15.780Z,36.60
2019-02-27T12:37:45.272Z,35.90
2019-02-27T12:43:18.252Z,35.90
2019-02-27T12:48:46.477Z,35.70
2019-02-27T12:54:16.511Z,35.40
2019-02-27T12:59:45.935Z,35.80
2019-02-27T13:05:18.106Z,35.30
2019-02-27T13:10:48.691Z,35.90
2019-02-27T13:16:18.215Z,35.60
2019-02-27T13:21:47.596Z,35.00
2019-02-27T13:27:16.923Z,34.80
2019-02-27T13:32:46.379Z,33.10
2019-02-27T13:38:18.390Z,32.30
2019-02-27T13:43:46.976Z,32.40
2019-02-27T13:49:16.393Z,32.10
2019-02-27T13:54:45.951Z,31.90
2019-02-27T14:00:38.775Z,30.90
2019-02-27T14:06:12.349Z,29.80
2019-02-27T14:11:42.621Z,28.30
2019-02-27T14:17:11.967Z,27.00
2019-02-27T14:22:41.305Z,25.60
2019-02-27T14:28:11.490Z,25.00
2019-02-27T14:33:40.773Z,24.40
2019-02-27T14:39:11.401Z,23.80
2019-02-27T14:44:40.680Z,23.80
2019-02-27T14:50:16.098Z,23.60
2019-02-27T14:55:45.373Z,23.00
2019-02-27T15:01:15.141Z,23.10
2019-02-27T15:06:44.428Z,23.00
2019-02-27T15:12:13.705Z,23.00
2019-02-27T15:17:43.001Z,23.00
2019-02-27T15:23:12.352Z,23.50
2019-02-27T15:28:41.718Z,23.90
2019-02-27T15:34:12.294Z,24.20
2019-02-27T15:39:42.220Z,24.20
2019-02-27T15:45:15.923Z,24.30
2019-02-27T15:50:56.545Z,25.20
2019-02-27T16:02:24.922Z,27.10
2019-02-27T16:07:54.175Z,28.10
2019-02-27T16:19:17.809Z,29.40
2019-02-27T16:24:53.263Z,30.00
2019-02-27T16:30:37.227Z,30.80
2019-02-27T16:36:06.967Z,31.30
2019-02-27T16:41:36.205Z,32.10
2019-02-27T16:47:07.149Z,32.60
2019-02-27T16:52:36.433Z,33.10
2019-02-27T16:58:07.413Z,33.60
2019-02-27T17:03:36.744Z,34.20
2019-02-27T17:09:07.243Z,34.70
2019-02-27T17:14:39.296Z,35.20
2019-02-27T17:20:16.243Z,35.60
2019-02-27T17:25:45.608Z,36.20
2019-02-27T17:31:19.146Z,36.80
2019-02-27T17:36:49.559Z,37.60
2019-02-27T17:42:19.362Z,37.70
2019-02-27T17:47:49.273Z,38.20
2019-02-27T17:53:20.410Z,38.70
2019-02-27T17:58:51.249Z,39.50
2019-02-27T18:04:20.803Z,39.80
2019-02-27T18:09:50.370Z,40.30
2019-02-27T18:15:22.167Z,40.90
2019-02-27T18:20:51.701Z,41.40
2019-02-27T18:26:21.170Z,42.00
2019-02-27T18:31:52.832Z,42.20
2019-02-27T18:37:22.179Z,42.60
2019-02-27T18:42:55.152Z,43.00
2019-02-27T18:48:22.914Z,43.50
2019-02-27T18:53:52.732Z,43.90
2019-02-27T18:59:22.236Z,45.20
2019-02-27T19:04:51.658Z,45.70
2019-02-27T19:10:27.874Z,46.10
2019-02-27T19:15:57.291Z,46.40
2019-02-27T19:21:27.379Z,46.90
2019-02-27T19:27:02.697Z,47.70
2019-02-27T19:32:32.332Z,47.70
2019-02-27T19:38:01.984Z,47.80
2019-02-27T19:43:32.934Z,48.30
2019-02-27T19:49:04.148Z,48.50
2019-02-27T19:54:34.355Z,48.90
2019-02-27T20:00:05.212Z,49.20
2019-02-27T20:05:38.002Z,49.30
2019-02-27T20:11:07.370Z,49.50
2019-02-27T20:16:36.874Z,49.80
2019-02-27T20:22:06.426Z,49.90
2019-02-27T20:27:35.828Z,50.00
2019-02-27T20:33:06.678Z,50.20
2019-02-27T20:38:38.150Z,50.50
2019-02-27T20:44:07.655Z,50.60
2019-02-27T20:49:37.128Z,50.80
2019-02-27T20:55:07.506Z,51.10
2019-02-27T21:00:37.296Z,51.10
2019-02-27T21:06:06.927Z,51.20
2019-02-27T21:11:36.327Z,51.30
2019-02-27T21:17:05.841Z,51.40
2019-02-27T21:22:35.301Z,51.90
2019-02-27T21:28:07.587Z,51.60
2019-02-27T21:33:37.990Z,51.60
2019-02-27T21:39:07.445Z,51.70
2019-02-27T21:44:36.836Z,52.00
2019-02-27T21:50:12.585Z,51.90
2019-02-27T21:55:44.742Z,52.00
2019-02-27T22:01:13.416Z,51.90
2019-02-27T22:06:43.051Z,51.90
2019-02-27T22:12:12.501Z,52.00
2019-02-27T22:17:42.133Z,52.00
2019-02-27T22:23:12.733Z,52.10
2019-02-27T22:28:43.251Z,52.70
2019-02-27T22:34:12.876Z,52.30
2019-02-27T22:39:42.401Z,52.30
2019-02-27T22:45:15.385Z,52.50
2019-02-27T22:50:44.757Z,52.70
2019-02-27T22:56:16.863Z,53.00
2019-02-27T23:01:50.511Z,53.00
2019-02-27T23:07:21.239Z,53.10
2019-02-27T23:12:50.808Z,53.30
2019-02-27T23:18:20.329Z,53.40
2019-02-27T23:23:49.731Z,53.60
2019-02-27T23:29:19.161Z,53.70
2019-02-27T23:34:48.564Z,53.80
2019-02-27T23:40:18.176Z,53.80
2019-02-27T23:45:53.496Z,53.90
2019-02-27T23:51:22.984Z,53.90
2019-02-27T23:56:52.978Z,54.10
